createdAt,value
2019-03-10T00:00:18.882Z,97451.72
2019-03-10T00:02:47.260Z,97440.87
2019-03-10T00:05:15.706Z,97454.10
2019-03-10T00:07:44.081Z,97446.77
2019-03-10T00:10:12.495Z,97453.69
2019-03-10T00:12:40.879Z,97460.05
2019-03-10T00:15:12.744Z,97466.84
2019-03-10T00:17:41.124Z,97465.22
2019-03-10T00:20:11.146Z,97466.10
2019-03-10T00:22:39.521Z,97460.98
2019-03-10T00:25:09.543Z,97463.62
2019-03-10T00:27:37.922Z,97461.95
2019-03-10T00:30:11.834Z,97455.54
2019-03-10T00:32:40.216Z,97459.37
2019-03-10T00:35:08.727Z,97454.63
2019-03-10T00:37:37.102Z,97441.76
2019-03-10T00:40:11.200Z,97442.67
2019-03-10T00:43:14.641Z,97443.15
2019-03-10T00:46:09.917Z,97433.33
2019-03-10T00:48:44.067Z,97431.58
2019-03-10T00:51:27.086Z,97435.91
2019-03-10T00:53:55.426Z,97422.69
2019-03-10T00:56:23.803Z,97418.81
2019-03-10T00:58:52.187Z,97428.26
2019-03-10T01:01:20.566Z,97426.52
2019-03-10T01:03:48.941Z,97422.31
2019-03-10T01:06:17.332Z,97419.27
2019-03-10T01:08:45.808Z,97410.69
2019-03-10T01:11:14.238Z,97421.07
2019-03-10T01:13:42.750Z,97413.47
2019-03-10T01:16:12.010Z,97415.37
2019-03-10T01:18:41.323Z,97408.60
2019-03-10T01:21:11.757Z,97404.45
2019-03-10T01:23:40.140Z,97400.67
2019-03-10T01:26:08.519Z,97390.88
2019-03-10T01:28:36.894Z,97391.79
2019-03-10T01:31:20.428Z,97386.72
2019-03-10T01:34:23.020Z,97382.08
2019-03-10T01:36:53.703Z,97384.77
2019-03-10T01:39:22.119Z,97369.41
2019-03-10T01:41:50.496Z,97365.63
2019-03-10T01:44:18.950Z,97367.02
2019-03-10T01:46:47.333Z,97362.33
2019-03-10T01:49:15.708Z,97358.51
2019-03-10T01:51:44.091Z,97355.59
2019-03-10T01:54:12.547Z,97358.28
2019-03-10T01:56:40.930Z,97355.80
2019-03-10T01:59:09.307Z,97353.27
2019-03-10T02:01:37.692Z,97341.28
2019-03-10T02:04:06.071Z,97336.63
2019-03-10T02:06:34.528Z,97338.02
2019-03-10T02:09:03.879Z,97335.95
2019-03-10T02:11:32.262Z,97317.37
2019-03-10T02:14:00.655Z,97322.54
2019-03-10T02:16:29.017Z,97317.84
2019-03-10T02:18:57.396Z,97319.17
2019-03-10T02:21:26.685Z,97315.40
2019-03-10T02:23:55.068Z,97317.16
2019-03-10T02:26:23.450Z,97308.31
2019-03-10T02:28:51.830Z,97298.92
2019-03-10T02:31:20.218Z,97293.86
2019-03-10T02:33:48.602Z,97290.55
2019-03-10T02:36:16.993Z,97282.95
2019-03-10T02:38:45.370Z,97294.66
2019-03-10T02:41:13.755Z,97290.84
2019-03-10T02:43:42.128Z,97286.56
2019-03-10T02:46:10.528Z,97278.05
2019-03-10T02:48:38.895Z,97269.91
2019-03-10T02:51:07.261Z,97268.61
2019-03-10T02:53:35.680Z,97271.19
2019-03-10T02:56:04.054Z,97261.79
2019-03-10T02:58:32.439Z,97260.50
2019-03-10T03:01:00.852Z,97265.66
2019-03-10T03:03:29.240Z,97275.11
2019-03-10T03:05:57.618Z,97270.41
2019-03-10T03:08:25.995Z,97261.84
2019-03-10T03:10:54.450Z,97265.70
2019-03-10T03:13:22.861Z,97265.75
2019-03-10T03:15:51.239Z,97270.91
2019-03-10T03:18:19.609Z,97258.44
2019-03-10T03:20:48.020Z,97262.77
2019-03-10T03:23:16.430Z,97259.40
2019-03-10T03:25:44.843Z,97262.86
2019-03-10T03:28:13.222Z,97262.08
2019-03-10T03:30:41.608Z,97268.11
2019-03-10T03:33:10.011Z,97256.51
2019-03-10T03:35:49.744Z,97250.97
2019-03-10T03:38:26.638Z,97244.13
2019-03-10T03:41:09.931Z,97242.84
2019-03-10T03:43:38.302Z,97237.27
2019-03-10T03:46:06.696Z,97226.58
2019-03-10T03:48:35.069Z,97220.23
2019-03-10T03:51:03.562Z,97215.08
2019-03-10T03:53:31.953Z,97204.31
2019-03-10T03:56:00.462Z,97201.28
2019-03-10T03:58:28.879Z,97192.70
2019-03-10T04:00:58.913Z,97182.40
2019-03-10T04:03:27.288Z,97176.41
2019-03-10T04:05:55.706Z,97172.09
2019-03-10T04:08:24.195Z,97169.11
2019-03-10T04:10:52.574Z,97163.12
2019-03-10T04:13:21.001Z,97167.44
2019-03-10T04:15:49.370Z,97166.10
2019-03-10T04:18:17.759Z,97166.10
2019-03-10T04:20:46.175Z,97169.56
2019-03-10T04:23:14.556Z,97166.53
2019-03-10T04:25:42.974Z,97155.48
2019-03-10T04:28:11.385Z,97149.92
2019-03-10T04:30:39.806Z,97164.96
2019-03-10T04:33:08.240Z,97165.38
2019-03-10T04:35:36.645Z,97170.54
2019-03-10T04:38:05.075Z,97171.00
2019-03-10T04:40:33.445Z,97174.77
2019-03-10T04:43:02.023Z,97166.16
2019-03-10T04:45:30.408Z,97160.13
2019-03-10T04:47:58.878Z,97157.08
2019-03-10T04:50:27.259Z,97150.18
2019-03-10T04:52:55.675Z,97144.56
2019-03-10T04:55:25.659Z,97139.77
2019-03-10T04:57:58.613Z,97142.30
2019-03-10T05:00:27.429Z,97135.45
2019-03-10T05:02:55.960Z,97125.55
2019-03-10T05:05:24.341Z,97120.80
2019-03-10T05:07:52.721Z,97113.84
2019-03-10T05:10:21.101Z,97096.58
2019-03-10T05:12:49.510Z,97093.11
2019-03-10T05:15:17.917Z,97095.19
2019-03-10T05:17:46.338Z,97096.47
2019-03-10T05:20:14.776Z,97091.72
2019-03-10T05:22:43.250Z,97083.13
2019-03-10T05:25:13.879Z,97088.28
2019-03-10T05:27:42.319Z,97081.36
2019-03-10T05:30:11.166Z,97071.47
2019-03-10T05:32:39.606Z,97061.97
2019-03-10T05:35:08.637Z,97056.00
2019-03-10T05:37:37.088Z,97041.93
2019-03-10T05:40:07.524Z,97042.03
2019-03-10T05:42:35.993Z,97041.31
2019-03-10T05:45:06.343Z,97033.25
2019-03-10T05:47:34.772Z,97019.19
2019-03-10T05:50:03.653Z,97010.64
2019-03-10T05:52:32.078Z,97007.28
2019-03-10T05:55:00.454Z,97011.66
2019-03-10T05:57:28.835Z,96927.00
2019-03-10T05:59:57.218Z,96996.00
2019-03-10T06:02:25.598Z,96987.19
2019-03-10T06:04:53.982Z,96978.44
2019-03-10T06:07:22.370Z,96975.69
2019-03-10T06:09:50.753Z,96975.84
2019-03-10T06:12:19.146Z,96979.41
2019-03-10T06:14:47.532Z,96975.64
2019-03-10T06:17:15.952Z,96970.62
2019-03-10T06:19:44.335Z,96972.02
2019-03-10T06:22:12.758Z,96964.86
2019-03-10T06:24:41.143Z,96965.57
2019-03-10T06:27:09.561Z,96964.98
2019-03-10T06:29:37.930Z,96969.05
2019-03-10T06:32:06.313Z,96968.87
2019-03-10T06:34:34.697Z,96961.81
2019-03-10T06:37:03.089Z,96962.13
2019-03-10T06:39:31.486Z,96964.48
2019-03-10T06:41:59.866Z,96954.79
2019-03-10T06:44:28.276Z,96950.62
2019-03-10T06:46:56.680Z,96938.71
2019-03-10T06:49:25.069Z,96935.04
2019-03-10T06:51:53.446Z,96934.27
2019-03-10T06:54:21.832Z,96934.36
2019-03-10T06:56:50.213Z,96928.07
2019-03-10T06:59:18.601Z,96923.01
2019-03-10T07:01:46.973Z,96915.72
2019-03-10T07:04:15.354Z,96917.45
2019-03-10T07:06:43.746Z,96908.91
2019-03-10T07:09:12.149Z,96902.53
2019-03-10T07:11:40.535Z,96905.57
2019-03-10T07:14:08.918Z,96896.62
2019-03-10T07:16:37.292Z,96892.76
2019-03-10T07:19:05.701Z,96889.81
2019-03-10T07:21:34.125Z,96878.29
2019-03-10T07:24:02.570Z,96876.50
2019-03-10T07:26:30.946Z,96875.58
2019-03-10T07:29:01.017Z,96870.39
2019-03-10T07:31:43.408Z,96866.91
2019-03-10T07:34:19.127Z,96866.86
2019-03-10T07:36:49.176Z,96873.65
2019-03-10T07:39:19.166Z,96871.86
2019-03-10T07:41:51.985Z,96864.14
2019-03-10T07:44:22.014Z,96861.58
2019-03-10T07:47:00.776Z,96848.71
2019-03-10T07:49:30.790Z,96839.72
2019-03-10T07:52:20.599Z,96837.97
2019-03-10T07:54:53.887Z,96834.57
2019-03-10T07:57:23.935Z,96832.00
2019-03-10T07:59:53.959Z,96829.38
2019-03-10T08:02:24.011Z,96825.57
2019-03-10T08:04:54.057Z,96830.20
2019-03-10T08:07:26.840Z,96840.50
2019-03-10T08:10:02.918Z,96826.76
2019-03-10T08:12:33.042Z,96818.53
2019-03-10T08:15:12.122Z,96819.50
2019-03-10T08:17:42.264Z,96837.45
2019-03-10T08:20:15.021Z,96797.59
2019-03-10T08:22:48.096Z,96812.61
2019-03-10T08:25:18.086Z,96816.11
2019-03-10T08:28:04.781Z,96791.26
2019-03-10T08:30:40.561Z,96765.55
2019-03-10T08:33:10.578Z,96750.11
2019-03-10T08:35:57.050Z,96733.40
2019-03-10T08:38:39.135Z,96741.48
2019-03-10T08:41:09.158Z,96735.87
2019-03-10T08:43:44.799Z,96725.95
2019-03-10T08:46:14.848Z,96707.84
2019-03-10T08:48:47.595Z,96715.56
2019-03-10T08:51:23.441Z,96713.91
2019-03-10T08:53:59.383Z,96719.05
2019-03-10T08:56:29.432Z,96714.33
2019-03-10T08:59:08.453Z,96706.66
2019-03-10T09:01:38.513Z,96716.07
2019-03-10T09:04:17.368Z,96699.36
2019-03-10T09:06:47.395Z,96714.28
2019-03-10T09:09:33.610Z,96716.80
2019-03-10T09:12:03.563Z,96717.15
2019-03-10T09:14:42.757Z,96720.07
2019-03-10T09:17:12.781Z,96656.66
2019-03-10T09:19:42.799Z,96712.22
2019-03-10T09:22:29.510Z,96704.08
2019-03-10T09:25:15.990Z,96708.30
2019-03-10T09:28:02.468Z,96699.70
2019-03-10T09:30:32.500Z,96684.67
2019-03-10T09:33:05.489Z,96680.71
2019-03-10T09:35:35.517Z,96680.03
2019-03-10T09:38:08.269Z,96673.75
2019-03-10T09:40:43.968Z,96686.30
2019-03-10T09:43:25.978Z,96676.23
2019-03-10T09:46:01.672Z,96676.01
2019-03-10T09:48:48.017Z,96659.42
2019-03-10T09:51:23.481Z,96649.81
2019-03-10T09:53:58.961Z,96647.77
2019-03-10T09:56:34.944Z,96636.78
2019-03-10T09:59:10.944Z,96580.09
2019-03-10T10:01:41.026Z,96637.77
2019-03-10T10:04:14.131Z,96639.31
2019-03-10T10:06:46.945Z,96634.44
2019-03-10T10:09:29.213Z,96630.91
2019-03-10T10:12:13.730Z,96564.23
2019-03-10T10:14:55.202Z,96628.53
2019-03-10T10:17:43.442Z,96620.55
2019-03-10T10:20:16.504Z,96615.98
2019-03-10T10:23:04.917Z,96609.56
2019-03-10T10:25:37.372Z,96605.62
2019-03-10T10:28:16.463Z,96608.46
2019-03-10T10:31:02.491Z,96597.66
2019-03-10T10:33:35.506Z,96593.27
2019-03-10T10:36:05.606Z,96575.18
2019-03-10T10:38:41.334Z,96578.05
2019-03-10T10:41:14.349Z,96571.98
2019-03-10T10:43:53.414Z,96560.38
2019-03-10T10:46:23.452Z,96550.11
2019-03-10T10:48:59.039Z,96558.39
2019-03-10T10:51:29.912Z,96551.27
2019-03-10T10:54:02.955Z,96546.36
2019-03-10T10:56:45.038Z,96551.55
2019-03-10T10:59:18.053Z,96538.95
2019-03-10T11:01:53.517Z,96528.54
2019-03-10T11:04:39.445Z,96520.34
2019-03-10T11:07:18.702Z,96511.59
2019-03-10T11:09:48.776Z,96522.77
2019-03-10T11:12:18.794Z,96509.46
2019-03-10T11:14:48.814Z,96520.55
2019-03-10T11:17:31.169Z,96513.78
2019-03-10T11:20:10.302Z,96509.20
2019-03-10T11:22:58.748Z,96496.22
2019-03-10T11:25:31.796Z,96494.38
2019-03-10T11:28:20.036Z,96483.96
2019-03-10T11:30:52.838Z,96476.12
2019-03-10T11:33:38.018Z,96478.79
2019-03-10T11:36:24.104Z,96453.67
2019-03-10T11:38:54.151Z,96437.25
2019-03-10T11:41:34.066Z,96461.81
2019-03-10T11:44:16.377Z,96448.50
2019-03-10T11:46:46.430Z,96457.71
2019-03-10T11:49:31.567Z,96453.21
2019-03-10T11:52:01.603Z,96438.99
2019-03-10T11:54:31.642Z,96427.27
2019-03-10T11:57:07.675Z,96428.16
2019-03-10T11:59:55.497Z,96425.30
2019-03-10T12:02:41.487Z,96418.23
2019-03-10T12:05:24.835Z,96389.63
2019-03-10T12:07:58.098Z,96409.98
2019-03-10T12:10:26.488Z,96397.05
2019-03-10T12:12:54.880Z,96385.23
2019-03-10T12:15:23.308Z,96370.66
2019-03-10T12:17:51.746Z,96367.52
2019-03-10T12:20:20.184Z,96346.28
2019-03-10T12:22:48.981Z,96337.05
2019-03-10T12:25:17.406Z,96349.61
2019-03-10T12:27:46.035Z,96339.84
2019-03-10T12:30:17.608Z,96334.48
2019-03-10T12:32:46.152Z,96327.75
2019-03-10T12:35:14.521Z,96330.78
2019-03-10T12:37:43.016Z,96332.64
2019-03-10T12:40:12.635Z,96338.75
2019-03-10T12:42:41.081Z,96335.52
2019-03-10T12:45:10.955Z,96328.21
2019-03-10T12:47:39.345Z,96344.23
2019-03-10T12:50:12.342Z,96349.41
2019-03-10T12:52:40.833Z,96343.58
2019-03-10T12:55:10.225Z,96348.38
2019-03-10T12:57:38.678Z,96347.82
2019-03-10T13:00:15.115Z,96342.20
2019-03-10T13:02:43.562Z,96347.29
2019-03-10T13:05:12.230Z,96328.42
2019-03-10T13:07:40.651Z,96304.54
2019-03-10T13:10:09.180Z,96319.81
2019-03-10T13:12:37.570Z,96302.80
2019-03-10T13:15:11.148Z,96311.22
2019-03-10T13:17:39.597Z,96304.55
2019-03-10T13:20:10.303Z,96292.70
2019-03-10T13:22:38.784Z,96303.80
2019-03-10T13:25:10.306Z,96270.30
2019-03-10T13:27:38.841Z,96217.37
2019-03-10T13:30:09.870Z,96275.45
2019-03-10T13:32:38.317Z,96276.02
2019-03-10T13:35:07.333Z,96286.02
2019-03-10T13:37:35.795Z,96270.46
2019-03-10T13:40:06.250Z,96251.73
2019-03-10T13:42:34.711Z,96266.72
2019-03-10T13:45:03.406Z,96254.47
2019-03-10T13:47:31.796Z,96245.88
2019-03-10T13:50:00.346Z,96248.08
2019-03-10T13:52:28.772Z,96249.28
2019-03-10T13:54:57.167Z,96256.15
2019-03-10T13:57:25.607Z,96258.94
2019-03-10T13:59:53.991Z,96271.28
2019-03-10T14:02:22.385Z,96284.25
2019-03-10T14:04:50.879Z,96273.97
2019-03-10T14:07:19.315Z,96269.89
2019-03-10T14:09:47.714Z,96253.59
2019-03-10T14:12:16.121Z,96246.02
2019-03-10T14:14:44.547Z,96235.83
2019-03-10T14:17:12.933Z,96235.06
2019-03-10T14:19:41.356Z,96231.50
2019-03-10T14:22:09.794Z,96222.76
2019-03-10T14:24:38.225Z,96230.15
2019-03-10T14:27:07.580Z,96228.83
2019-03-10T14:29:35.994Z,96227.58
2019-03-10T14:32:04.394Z,96225.15
2019-03-10T14:34:32.780Z,96239.60
2019-03-10T14:37:01.170Z,96221.09
2019-03-10T14:39:29.635Z,96222.02
2019-03-10T14:41:58.052Z,96231.45
2019-03-10T14:44:26.485Z,96243.28
2019-03-10T14:46:54.912Z,96196.83
2019-03-10T14:49:23.799Z,96243.21
2019-03-10T14:51:52.282Z,96234.21
2019-03-10T14:54:20.656Z,96211.62
2019-03-10T14:56:49.123Z,96252.72
2019-03-10T14:59:17.576Z,96255.70
2019-03-10T15:01:46.012Z,96280.86
2019-03-10T15:04:14.421Z,96300.11
2019-03-10T15:06:42.807Z,96300.10
2019-03-10T15:09:12.332Z,96321.27
2019-03-10T15:11:40.763Z,96312.66
2019-03-10T15:14:09.178Z,96365.01
2019-03-10T15:16:37.603Z,96263.72
2019-03-10T15:19:05.980Z,96315.62
2019-03-10T15:21:34.390Z,96321.52
2019-03-10T15:24:02.779Z,96306.64
2019-03-10T15:26:31.195Z,96326.94
2019-03-10T15:28:59.588Z,96323.45
2019-03-10T15:31:27.998Z,96312.50
2019-03-10T15:33:56.435Z,96325.94
2019-03-10T15:36:24.842Z,96330.88
2019-03-10T15:38:53.291Z,96308.63
2019-03-10T15:41:21.672Z,96320.84
2019-03-10T15:43:50.100Z,96321.95
2019-03-10T15:46:18.510Z,96346.94
2019-03-10T15:48:46.952Z,96317.94
2019-03-10T15:51:15.306Z,96339.35
2019-03-10T15:53:43.924Z,96319.14
2019-03-10T15:56:12.333Z,96335.71
2019-03-10T15:58:40.814Z,96256.04
2019-03-10T16:01:09.286Z,96325.27
2019-03-10T16:03:37.705Z,96333.25
2019-03-10T16:06:06.089Z,96350.11
2019-03-10T16:08:34.483Z,96345.84
2019-03-10T16:11:02.921Z,96331.85
2019-03-10T16:13:31.318Z,96355.30
2019-03-10T16:15:59.706Z,96363.08
2019-03-10T16:18:28.118Z,96369.28
2019-03-10T16:20:56.597Z,96379.91
2019-03-10T16:23:25.001Z,96370.83
2019-03-10T16:25:53.364Z,96393.27
2019-03-10T16:28:21.749Z,96384.18
2019-03-10T16:30:50.137Z,96394.74
2019-03-10T16:33:18.548Z,96391.87
2019-03-10T16:35:46.939Z,96421.45
2019-03-10T16:38:15.461Z,96410.49
2019-03-10T16:40:43.814Z,96416.81
2019-03-10T16:43:12.202Z,96421.62
2019-03-10T16:45:40.597Z,96425.16
2019-03-10T16:48:08.992Z,96433.84
2019-03-10T16:50:37.374Z,96362.67
2019-03-10T16:53:05.758Z,96414.41
2019-03-10T16:55:34.200Z,96418.00
2019-03-10T16:58:02.642Z,96427.55
2019-03-10T17:00:31.121Z,96426.81
2019-03-10T17:02:59.568Z,96435.84
2019-03-10T17:05:27.946Z,96462.59
2019-03-10T17:07:56.519Z,96473.81
2019-03-10T17:10:27.993Z,96441.61
2019-03-10T17:12:56.488Z,96447.89
2019-03-10T17:15:25.645Z,96453.43
2019-03-10T17:17:54.396Z,96453.78
2019-03-10T17:20:22.858Z,96480.14
2019-03-10T17:22:51.344Z,96482.44
2019-03-10T17:25:19.771Z,96486.80
2019-03-10T17:27:48.311Z,96504.63
2019-03-10T17:30:23.227Z,96476.90
2019-03-10T17:32:51.705Z,96520.86
2019-03-10T17:35:20.788Z,96543.83
2019-03-10T17:37:49.240Z,96534.16
2019-03-10T17:40:24.099Z,96529.36
2019-03-10T17:42:53.027Z,96553.31
2019-03-10T17:45:22.556Z,96567.03
2019-03-10T17:47:51.148Z,96549.27
2019-03-10T17:50:21.694Z,96588.80
2019-03-10T17:52:50.599Z,96571.61
2019-03-10T17:55:22.263Z,96592.33
2019-03-10T17:57:50.780Z,96585.63
2019-03-10T18:00:30.672Z,96612.95
2019-03-10T18:02:59.170Z,96609.22
2019-03-10T18:05:27.560Z,96549.88
2019-03-10T18:07:55.954Z,96633.00
2019-03-10T18:10:24.341Z,96636.20
2019-03-10T18:12:52.898Z,96633.23
2019-03-10T18:15:21.349Z,96648.30
2019-03-10T18:17:49.787Z,96668.48
2019-03-10T18:20:20.280Z,96663.13
2019-03-10T18:22:48.829Z,96652.02
2019-03-10T18:25:17.256Z,96686.34
2019-03-10T18:27:45.674Z,96691.70
2019-03-10T18:30:21.729Z,96691.39
2019-03-10T18:32:50.253Z,96709.81
2019-03-10T18:35:18.659Z,96718.64
2019-03-10T18:37:47.185Z,96734.50
2019-03-10T18:40:25.997Z,96731.35
2019-03-10T18:42:54.523Z,96735.09
2019-03-10T18:45:22.941Z,96727.23
2019-03-10T18:47:51.381Z,96751.89
2019-03-10T18:50:21.221Z,96755.98
2019-03-10T18:52:49.622Z,96762.23
2019-03-10T18:55:18.580Z,96774.78
2019-03-10T18:57:47.096Z,96780.56
2019-03-10T19:00:17.957Z,96782.28
2019-03-10T19:02:46.780Z,96785.91
2019-03-10T19:05:15.299Z,96779.20
2019-03-10T19:07:43.688Z,96798.30
2019-03-10T19:10:13.410Z,96801.09
2019-03-10T19:12:41.858Z,96802.90
2019-03-10T19:15:16.139Z,96815.47
2019-03-10T19:17:44.573Z,96810.89
2019-03-10T19:20:14.600Z,96814.73
2019-03-10T19:22:42.976Z,96802.08
2019-03-10T19:25:17.376Z,96771.73
2019-03-10T19:27:46.751Z,96812.53
2019-03-10T19:30:19.208Z,96782.62
2019-03-10T19:32:47.621Z,96789.05
2019-03-10T19:35:16.165Z,96794.49
2019-03-10T19:37:44.542Z,96796.48
2019-03-10T19:40:20.492Z,96810.39
2019-03-10T19:42:48.931Z,96811.88
2019-03-10T19:45:21.642Z,96799.63
2019-03-10T19:47:50.086Z,96801.88
2019-03-10T19:50:28.986Z,96810.92
2019-03-10T19:52:57.570Z,96818.04
2019-03-10T19:55:26.053Z,96814.89
2019-03-10T19:57:54.457Z,96821.81
2019-03-10T20:00:23.238Z,96842.87
2019-03-10T20:02:51.634Z,96839.22
2019-03-10T20:05:20.028Z,96835.53
2019-03-10T20:07:48.413Z,96835.27
2019-03-10T20:10:25.741Z,96852.70
2019-03-10T20:12:54.186Z,96861.22
2019-03-10T20:15:23.660Z,96868.96
2019-03-10T20:17:52.064Z,96880.98
2019-03-10T20:20:22.421Z,96887.44
2019-03-10T20:22:50.797Z,96918.78
2019-03-10T20:25:19.189Z,96927.81
2019-03-10T20:27:47.562Z,96946.78
2019-03-10T20:30:19.046Z,96945.48
2019-03-10T20:32:47.572Z,96943.44
2019-03-10T20:35:15.952Z,96945.98
2019-03-10T20:37:44.333Z,96959.25
2019-03-10T20:40:17.390Z,96934.83
2019-03-10T20:42:45.908Z,96956.87
2019-03-10T20:45:14.737Z,96962.02
2019-03-10T20:47:43.127Z,96971.98
2019-03-10T20:50:14.555Z,96974.72
2019-03-10T20:52:43.020Z,96980.53
2019-03-10T20:55:12.556Z,96983.16
2019-03-10T20:57:40.930Z,96992.69
2019-03-10T21:00:15.103Z,97008.25
2019-03-10T21:02:43.498Z,97007.11
2019-03-10T21:05:12.444Z,97011.50
2019-03-10T21:07:41.734Z,97027.05
2019-03-10T21:10:16.050Z,97037.08
2019-03-10T21:12:44.436Z,97050.94
2019-03-10T21:15:17.460Z,97053.70
2019-03-10T21:17:46.040Z,97092.93
2019-03-10T21:20:22.029Z,97081.34
2019-03-10T21:22:50.380Z,97087.00
2019-03-10T21:25:32.509Z,97103.32
2019-03-10T21:28:00.894Z,97115.41
2019-03-10T21:30:33.690Z,97103.91
2019-03-10T21:33:02.319Z,97112.61
2019-03-10T21:35:33.151Z,97125.98
2019-03-10T21:38:00.949Z,97156.05
2019-03-10T21:40:30.870Z,97250.79
2019-03-10T21:42:59.284Z,97180.44
2019-03-10T21:45:27.709Z,97249.95
2019-03-10T21:47:56.193Z,97235.07
2019-03-10T21:50:24.590Z,97240.77
2019-03-10T21:52:53.015Z,97230.98
2019-03-10T21:55:21.470Z,97248.11
2019-03-10T21:57:49.877Z,97255.84
2019-03-10T22:00:22.763Z,97259.20
2019-03-10T22:02:51.181Z,97275.47
2019-03-10T22:05:19.650Z,97284.42
2019-03-10T22:07:48.086Z,97301.93
2019-03-10T22:10:27.126Z,97297.08
2019-03-10T22:12:50.543Z,97306.80
2019-03-10T22:15:22.047Z,97307.61
2019-03-10T22:17:50.516Z,97318.69
2019-03-10T22:20:19.641Z,97348.12
2019-03-10T22:22:49.638Z,97343.79
2019-03-10T22:25:18.160Z,97334.84
2019-03-10T22:27:46.669Z,97345.16
2019-03-10T22:30:18.951Z,97347.34
2019-03-10T22:32:47.338Z,97345.22
2019-03-10T22:35:15.820Z,97343.55
2019-03-10T22:37:44.376Z,97345.30
2019-03-10T22:40:19.419Z,97347.56
2019-03-10T22:42:47.884Z,97365.13
2019-03-10T22:45:17.188Z,97365.40
2019-03-10T22:47:45.641Z,97386.20
2019-03-10T22:50:15.009Z,97367.07
2019-03-10T22:52:43.813Z,97389.42
2019-03-10T22:55:13.286Z,97396.80
2019-03-10T22:57:41.720Z,97399.95
2019-03-10T23:00:19.143Z,97393.20
2019-03-10T23:02:47.526Z,97405.59
2019-03-10T23:05:15.972Z,97400.98
2019-03-10T23:07:44.425Z,97415.95
2019-03-10T23:10:16.277Z,97418.05
2019-03-10T23:12:44.730Z,97416.84
2019-03-10T23:15:14.486Z,97428.77
2019-03-10T23:17:42.955Z,97422.01
2019-03-10T23:20:15.882Z,97445.13
2019-03-10T23:22:44.625Z,97449.89
2019-03-10T23:25:13.141Z,97444.02
2019-03-10T23:27:41.594Z,97461.95
2019-03-10T23:30:13.057Z,97469.30
2019-03-10T23:32:41.437Z,97499.35
2019-03-10T23:35:09.980Z,97515.51
2019-03-10T23:37:38.465Z,97508.24
2019-03-10T23:40:09.790Z,97510.15
2019-03-10T23:42:38.202Z,97534.15
2019-03-10T23:45:09.064Z,97523.13
2019-03-10T23:47:37.446Z,97518.06
2019-03-10T23:50:07.662Z,97502.72
2019-03-10T23:52:36.158Z,97489.05
2019-03-10T23:55:06.159Z,97501.80
2019-03-10T23:57:34.569Z,97501.78
